Time;durP1;ratioP1;P1;durP2;ratioP2;P2;SDS_P1;SDS_P2;PMS_P1;PMS_P2;Temp;Humidity;BMP_temperature;BMP_pressure;BME280_temperature;BME280_humidity;BME280_pressure;Samples;Min_cycle;Max_cycle;Signal;HPM_P1;HPM_P2
2023/01/06 00:00:45;;;;;;;3.03;1.40;;;;;;;;;;5112137;28;20222;-85
2023/01/06 00:03:12;;;;;;;4.40;1.47;;;;;;;;;;5112338;28;20197;-85
2023/01/06 00:05:40;;;;;;;3.47;1.70;;;;;;;;;;5112461;28;20256;-84
2023/01/06 00:08:08;;;;;;;3.23;1.60;;;;;;;;;;5111406;28;20254;-85
2023/01/06 00:10:36;;;;;;;3.87;1.70;;;;;;;;;;5112235;28;20282;-84
2023/01/06 00:13:04;;;;;;;3.17;1.80;;;;;;;;;;5111861;28;20285;-85
2023/01/06 00:15:32;;;;;;;2.60;1.60;;;;;;;;;;5111475;28;20321;-84
2023/01/06 00:18:00;;;;;;;3.33;1.80;;;;;;;;;;5112190;28;20744;-85
2023/01/06 00:20:27;;;;;;;3.30;1.63;;;;;;;;;;5112218;28;20198;-85
2023/01/06 00:22:55;;;;;;;3.90;1.97;;;;;;;;;;5111718;28;20201;-84
2023/01/06 00:25:24;;;;;;;4.03;1.80;;;;;;;;;;5112299;28;20229;-84
2023/01/06 00:27:52;;;;;;;3.23;1.80;;;;;;;;;;5111823;28;20194;-84
2023/01/06 00:30:19;;;;;;;2.40;1.80;;;;;;;;;;5111524;28;20201;-85
2023/01/06 00:32:46;;;;;;;3.57;1.60;;;;;;;;;;5112333;28;20221;-85
2023/01/06 00:35:13;;;;;;;3.40;1.90;;;;;;;;;;5111948;28;20270;-84
2023/01/06 00:37:40;;;;;;;2.53;1.80;;;;;;;;;;5111423;28;20197;-84
2023/01/06 00:40:08;;;;;;;4.43;1.70;;;;;;;;;;5112316;28;20198;-84
2023/01/06 00:42:37;;;;;;;3.77;1.90;;;;;;;;;;5112489;28;20282;-85
2023/01/06 00:45:04;;;;;;;3.53;1.93;;;;;;;;;;5111621;28;20222;-84
2023/01/06 00:47:32;;;;;;;3.90;1.90;;;;;;;;;;5111742;28;20782;-85
2023/01/06 00:49:59;;;;;;;2.97;1.90;;;;;;;;;;5111673;28;20254;-85
2023/01/06 00:52:26;;;;;;;3.70;1.80;;;;;;;;;;5111402;28;20201;-85
2023/01/06 00:54:54;;;;;;;3.13;1.30;;;;;;;;;;5111754;28;20247;-84
2023/01/06 00:57:21;;;;;;;3.17;1.30;;;;;;;;;;5111716;28;21210;-85
2023/01/06 00:59:50;;;;;;;3.33;1.40;;;;;;;;;;5111976;28;20196;-84
2023/01/06 01:02:17;;;;;;;3.77;1.63;;;;;;;;;;5112317;28;20202;-85
2023/01/06 01:04:44;;;;;;;3.20;1.40;;;;;;;;;;5111444;28;20274;-86
2023/01/06 01:07:11;;;;;;;3.57;1.33;;;;;;;;;;5111467;28;20202;-84
2023/01/06 01:09:39;;;;;;;4.27;1.50;;;;;;;;;;5111887;28;20248;-85
2023/01/06 01:12:13;;;;;;;3.07;1.50;;;;;;;;;;5111672;28;20231;-85
2023/01/06 01:14:42;;;;;;;3.87;1.63;;;;;;;;;;5111637;28;20247;-85
2023/01/06 01:17:11;;;;;;;4.53;1.80;;;;;;;;;;5111681;28;20279;-85
2023/01/06 01:19:39;;;;;;;3.83;1.90;;;;;;;;;;5111160;28;20194;-85
2023/01/06 01:22:06;;;;;;;3.27;1.53;;;;;;;;;;5111317;28;20236;-84
2023/01/06 01:24:33;;;;;;;4.53;1.87;;;;;;;;;;5111457;28;20255;-84
2023/01/06 01:27:01;;;;;;;4.20;1.40;;;;;;;;;;5114917;28;20705;-85
2023/01/06 01:29:28;;;;;;;3.73;1.80;;;;;;;;;;5115311;28;20221;-84
2023/01/06 01:31:55;;;;;;;5.43;1.70;;;;;;;;;;5115121;28;20194;-84
2023/01/06 01:34:24;;;;;;;2.87;1.57;;;;;;;;;;5114653;28;20248;-84
2023/01/06 01:36:52;;;;;;;2.83;1.37;;;;;;;;;;5115102;28;20226;-85
2023/01/06 01:39:21;;;;;;;6.00;1.47;;;;;;;;;;5114924;28;20262;-84
2023/01/06 01:41:48;;;;;;;2.90;1.50;;;;;;;;;;5114815;28;20236;-84
2023/01/06 01:44:34;;;;;;;6.80;1.63;;;;;;;;;;5115128;28;20209;-84
2023/01/06 01:47:01;;;;;;;3.43;1.50;;;;;;;;;;5114569;28;20660;-84
2023/01/06 01:49:32;;;;;;;3.37;1.67;;;;;;;;;;5114864;28;20931;-85
2023/01/06 01:52:00;;;;;;;4.77;1.70;;;;;;;;;;5114872;28;20220;-84
2023/01/06 01:54:29;;;;;;;3.17;1.53;;;;;;;;;;5114608;28;20206;-84
2023/01/06 01:56:58;;;;;;;3.13;1.30;;;;;;;;;;5115025;28;20237;-84
2023/01/06 01:59:27;;;;;;;5.17;1.80;;;;;;;;;;5114583;28;20202;-84
2023/01/06 02:01:55;;;;;;;6.57;1.77;;;;;;;;;;5114287;28;20637;-84
2023/01/06 02:04:23;;;;;;;3.93;1.50;;;;;;;;;;5114258;28;20238;-84
2023/01/06 02:06:52;;;;;;;1.97;1.60;;;;;;;;;;5114679;28;20299;-85
2023/01/06 02:09:22;;;;;;;5.30;1.70;;;;;;;;;;5114804;28;20194;-85
2023/01/06 02:11:50;;;;;;;4.63;1.67;;;;;;;;;;5114459;28;20242;-84
2023/01/06 02:14:18;;;;;;;3.37;2.07;;;;;;;;;;5114512;28;20193;-84
2023/01/06 02:16:53;;;;;;;4.10;2.23;;;;;;;;;;5113936;28;20198;-84
2023/01/06 02:19:33;;;;;;;4.77;2.10;;;;;;;;;;5114175;28;20225;-85
2023/01/06 02:22:12;;;;;;;4.60;2.20;;;;;;;;;;5114209;28;20601;-85
2023/01/06 02:24:54;;;;;;;4.63;2.33;;;;;;;;;;5114433;28;20217;-84
2023/01/06 02:27:42;;;;;;;4.43;2.30;;;;;;;;;;5110278;28;20940;-85
2023/01/06 02:30:36;;;;;;;4.87;2.20;;;;;;;;;;5114028;28;20194;-84
2023/01/06 02:33:21;;;;;;;4.77;2.67;;;;;;;;;;5031312;28;20288;-84
2023/01/06 02:36:04;;;;;;;3.10;2.27;;;;;;;;;;5031160;28;20240;-84
2023/01/06 02:38:41;;;;;;;4.30;2.40;;;;;;;;;;5030248;28;20247;-84
2023/01/06 02:41:11;;;;;;;4.30;2.30;;;;;;;;;;5031373;28;20228;-85
2023/01/06 02:43:45;;;;;;;5.03;2.20;;;;;;;;;;5031129;28;20245;-83
2023/01/06 02:46:17;;;;;;;6.23;2.30;;;;;;;;;;5030758;28;20738;-84
2023/01/06 02:48:48;;;;;;;6.03;1.90;;;;;;;;;;5030723;28;20307;-84
2023/01/06 02:51:18;;;;;;;3.63;1.97;;;;;;;;;;5031300;28;20228;-84
2023/01/06 02:53:51;;;;;;;4.10;1.90;;;;;;;;;;5030837;28;20259;-84
2023/01/06 02:56:22;;;;;;;4.07;1.90;;;;;;;;;;5030878;28;20258;-85
2023/01/06 02:58:53;;;;;;;4.07;2.07;;;;;;;;;;5030634;28;21154;-85
2023/01/06 03:01:23;;;;;;;5.47;2.20;;;;;;;;;;5029844;28;20294;-84
2023/01/06 03:03:52;;;;;;;7.13;1.60;;;;;;;;;;5030815;28;20220;-83
2023/01/06 03:06:23;;;;;;;3.83;1.53;;;;;;;;;;5030538;28;20251;-84
2023/01/06 03:08:52;;;;;;;4.73;2.00;;;;;;;;;;5071550;28;20629;-84
2023/01/06 03:11:19;;;;;;;4.37;1.90;;;;;;;;;;5113312;28;20255;-84
2023/01/06 03:13:49;;;;;;;5.33;1.93;;;;;;;;;;5113484;28;20247;-85
2023/01/06 03:16:17;;;;;;;4.40;1.97;;;;;;;;;;5112575;28;20198;-84
2023/01/06 03:18:45;;;;;;;3.60;1.77;;;;;;;;;;5112907;28;20190;-85
2023/01/06 03:21:16;;;;;;;4.33;1.73;;;;;;;;;;5113205;28;20205;-84
2023/01/06 03:23:46;;;;;;;4.03;2.17;;;;;;;;;;5113002;28;20197;-84
2023/01/06 03:26:14;;;;;;;5.73;2.10;;;;;;;;;;5113294;28;20283;-84
2023/01/06 03:28:41;;;;;;;5.70;2.30;;;;;;;;;;5113005;28;20665;-84
2023/01/06 03:31:13;;;;;;;8.27;3.03;;;;;;;;;;5112540;28;20198;-83
2023/01/06 03:33:46;;;;;;;5.00;2.63;;;;;;;;;;5112298;28;20746;-84
2023/01/06 03:36:17;;;;;;;5.17;2.30;;;;;;;;;;5095588;28;20266;-84
2023/01/06 03:38:49;;;;;;;4.87;2.40;;;;;;;;;;5112315;28;20193;-84
2023/01/06 03:41:22;;;;;;;8.13;2.77;;;;;;;;;;5112592;28;20194;-83
2023/01/06 03:43:54;;;;;;;6.20;2.10;;;;;;;;;;5112386;28;20225;-84
2023/01/06 03:46:25;;;;;;;7.13;2.33;;;;;;;;;;5112430;28;20231;-84
2023/01/06 03:48:56;;;;;;;8.20;1.80;;;;;;;;;;5072400;28;20278;-84
2023/01/06 03:51:30;;;;;;;3.77;1.90;;;;;;;;;;5072096;28;20215;-84
2023/01/06 03:54:02;;;;;;;4.50;2.10;;;;;;;;;;5063852;28;20227;-84
2023/01/06 03:56:31;;;;;;;3.77;1.93;;;;;;;;;;5056929;28;20688;-84
2023/01/06 03:58:59;;;;;;;3.90;1.80;;;;;;;;;;5052014;28;20227;-84
2023/01/06 04:01:26;;;;;;;3.20;1.70;;;;;;;;;;5052262;28;20671;-84
2023/01/06 04:03:54;;;;;;;3.77;1.63;;;;;;;;;;5071839;28;20230;-84
2023/01/06 04:06:23;;;;;;;5.03;1.50;;;;;;;;;;5071569;28;20318;-84
2023/01/06 04:08:50;;;;;;;4.33;1.77;;;;;;;;;;5071957;28;20218;-84
2023/01/06 04:14:04;;;;;;;5.23;1.43;;;;;;;;;;5071732;28;20209;-84
2023/01/06 04:16:31;;;;;;;2.23;1.60;;;;;;;;;;5071890;28;20634;-84
2023/01/06 04:18:58;;;;;;;2.60;1.60;;;;;;;;;;5072248;28;20199;-84
2023/01/06 04:21:25;;;;;;;4.07;1.50;;;;;;;;;;5071714;28;20644;-85
2023/01/06 04:23:52;;;;;;;3.37;1.33;;;;;;;;;;5071982;28;20276;-84
2023/01/06 04:26:21;;;;;;;3.30;1.47;;;;;;;;;;5071483;28;20254;-84
2023/01/06 04:28:48;;;;;;;4.50;1.40;;;;;;;;;;5071057;28;20223;-84
2023/01/06 04:31:16;;;;;;;3.90;1.50;;;;;;;;;;5071470;28;20290;-84
2023/01/06 04:33:43;;;;;;;2.53;1.67;;;;;;;;;;5071500;28;20235;-84
2023/01/06 04:36:10;;;;;;;5.67;1.60;;;;;;;;;;5071635;28;20199;-83
2023/01/06 04:38:37;;;;;;;4.00;1.30;;;;;;;;;;5071192;28;20229;-84
2023/01/06 04:41:05;;;;;;;4.57;1.40;;;;;;;;;;5071120;28;20268;-84
2023/01/06 04:43:33;;;;;;;3.27;1.10;;;;;;;;;;5071169;28;20199;-84
2023/01/06 04:46:01;;;;;;;2.20;1.13;;;;;;;;;;5070980;28;20195;-84
2023/01/06 04:48:28;;;;;;;4.40;1.40;;;;;;;;;;5105864;28;20243;-83
2023/01/06 04:51:00;;;;;;;4.37;1.30;;;;;;;;;;5111745;28;20221;-85
2023/01/06 04:53:27;;;;;;;4.23;1.47;;;;;;;;;;5112263;28;20281;-84
2023/01/06 04:55:55;;;;;;;3.63;1.90;;;;;;;;;;5111426;28;20225;-84
2023/01/06 04:58:22;;;;;;;2.17;1.37;;;;;;;;;;5110794;28;20229;-84
2023/01/06 05:00:50;;;;;;;4.77;1.30;;;;;;;;;;5113213;28;20219;-84
2023/01/06 05:03:18;;;;;;;4.63;1.80;;;;;;;;;;5115607;28;20278;-84
2023/01/06 05:05:45;;;;;;;5.30;1.50;;;;;;;;;;5115815;28;20647;-84
2023/01/06 05:08:12;;;;;;;3.73;1.30;;;;;;;;;;5115948;28;20229;-84
2023/01/06 05:10:39;;;;;;;4.93;1.33;;;;;;;;;;5115598;28;20269;-84
2023/01/06 05:13:06;;;;;;;4.50;1.40;;;;;;;;;;5115138;28;20608;-85
2023/01/06 05:15:34;;;;;;;4.47;1.70;;;;;;;;;;5115443;28;20225;-84
2023/01/06 05:18:02;;;;;;;4.33;1.60;;;;;;;;;;5115800;28;20182;-84
2023/01/06 05:20:33;;;;;;;2.07;1.30;;;;;;;;;;5115089;28;20198;-84
2023/01/06 05:23:00;;;;;;;3.37;1.30;;;;;;;;;;5115589;28;20599;-84
2023/01/06 05:25:27;;;;;;;4.90;1.53;;;;;;;;;;5115223;28;20189;-85
2023/01/06 05:27:55;;;;;;;3.83;1.17;;;;;;;;;;5114691;28;20252;-85
2023/01/06 05:30:22;;;;;;;5.40;1.50;;;;;;;;;;5115417;28;20217;-84
2023/01/06 05:32:49;;;;;;;4.37;1.27;;;;;;;;;;5115405;28;20189;-85
2023/01/06 05:35:19;;;;;;;6.43;1.67;;;;;;;;;;5115207;28;20670;-84
2023/01/06 05:37:46;;;;;;;4.20;1.50;;;;;;;;;;5115372;28;20198;-84
2023/01/06 05:40:13;;;;;;;4.70;1.40;;;;;;;;;;5115181;28;20217;-84
2023/01/06 05:42:41;;;;;;;4.53;1.80;;;;;;;;;;5114494;28;20247;-84
2023/01/06 05:45:09;;;;;;;4.97;1.80;;;;;;;;;;5114715;28;20202;-85
2023/01/06 05:47:36;;;;;;;5.70;1.53;;;;;;;;;;5115168;28;20234;-84
2023/01/06 05:50:03;;;;;;;5.83;2.00;;;;;;;;;;5114286;28;20227;-84
2023/01/06 05:52:32;;;;;;;5.17;1.60;;;;;;;;;;5114634;28;20635;-85
2023/01/06 05:54:59;;;;;;;3.63;1.70;;;;;;;;;;5114565;28;20665;-85
2023/01/06 05:57:26;;;;;;;5.07;1.67;;;;;;;;;;5114683;28;20197;-84
2023/01/06 05:59:54;;;;;;;4.77;1.80;;;;;;;;;;5114812;28;20194;-85
2023/01/06 06:02:21;;;;;;;6.67;2.00;;;;;;;;;;5114654;28;20243;-84
2023/01/06 06:04:48;;;;;;;5.27;1.53;;;;;;;;;;5114654;28;20746;-83
2023/01/06 06:07:15;;;;;;;4.17;1.93;;;;;;;;;;5114923;28;20249;-84
2023/01/06 06:09:44;;;;;;;3.00;1.77;;;;;;;;;;5114960;28;20722;-83
2023/01/06 06:12:11;;;;;;;4.93;2.17;;;;;;;;;;5114127;28;20194;-84
2023/01/06 06:14:38;;;;;;;7.77;2.00;;;;;;;;;;5114884;28;20229;-83
2023/01/06 06:17:06;;;;;;;7.80;2.10;;;;;;;;;;5114484;28;20559;-84
2023/01/06 06:19:33;;;;;;;5.57;2.17;;;;;;;;;;5114569;28;20225;-85
2023/01/06 06:22:00;;;;;;;3.43;1.87;;;;;;;;;;5114016;28;20792;-84
2023/01/06 06:24:27;;;;;;;4.10;2.00;;;;;;;;;;5114180;28;20262;-84
2023/01/06 06:26:56;;;;;;;7.17;2.20;;;;;;;;;;5114573;28;20266;-87
2023/01/06 06:29:23;;;;;;;7.33;2.23;;;;;;;;;;5114762;28;20239;-85
2023/01/06 06:31:50;;;;;;;4.60;2.10;;;;;;;;;;5114415;28;20236;-84
2023/01/06 06:34:18;;;;;;;5.90;2.00;;;;;;;;;;5114814;28;20194;-84
2023/01/06 06:36:45;;;;;;;5.33;2.50;;;;;;;;;;5114746;28;20198;-85
2023/01/06 06:39:12;;;;;;;6.03;2.20;;;;;;;;;;5114277;28;20743;-86
2023/01/06 06:41:39;;;;;;;6.53;2.10;;;;;;;;;;5114472;28;20241;-84
2023/01/06 06:44:08;;;;;;;4.97;2.20;;;;;;;;;;5110697;28;20233;-84
2023/01/06 06:46:35;;;;;;;5.47;2.27;;;;;;;;;;5103019;28;20226;-86
2023/01/06 06:49:02;;;;;;;3.40;1.90;;;;;;;;;;5111454;28;20646;-84
2023/01/06 06:51:30;;;;;;;4.17;1.97;;;;;;;;;;5113312;28;20290;-84
2023/01/06 06:53:58;;;;;;;6.73;2.60;;;;;;;;;;5112782;28;20277;-85
2023/01/06 06:56:25;;;;;;;6.03;2.10;;;;;;;;;;5112883;28;20270;-85
2023/01/06 06:58:52;;;;;;;6.63;2.60;;;;;;;;;;5114057;28;20221;-85
2023/01/06 07:01:21;;;;;;;5.93;2.17;;;;;;;;;;5113682;28;20243;-85
2023/01/06 07:03:49;;;;;;;5.63;2.50;;;;;;;;;;5113424;28;20197;-84
2023/01/06 07:06:18;;;;;;;5.20;2.43;;;;;;;;;;5113759;28;20226;-85
2023/01/06 07:08:45;;;;;;;5.97;2.37;;;;;;;;;;5112617;28;20729;-84
2023/01/06 07:11:13;;;;;;;5.57;2.50;;;;;;;;;;5113498;28;20246;-84
2023/01/06 07:13:40;;;;;;;7.50;2.40;;;;;;;;;;5113288;28;20672;-84
2023/01/06 07:16:08;;;;;;;6.57;2.10;;;;;;;;;;5113637;28;20235;-85
2023/01/06 07:18:36;;;;;;;5.83;2.30;;;;;;;;;;5113088;28;20623;-84
2023/01/06 07:21:04;;;;;;;5.03;2.50;;;;;;;;;;5113105;28;20225;-85
2023/01/06 07:23:32;;;;;;;6.53;2.20;;;;;;;;;;5112652;28;20220;-87
2023/01/06 07:26:00;;;;;;;5.13;2.40;;;;;;;;;;5113206;28;20307;-86
2023/01/06 07:28:28;;;;;;;8.27;2.40;;;;;;;;;;5114126;28;20267;-87
2023/01/06 07:30:56;;;;;;;5.67;2.60;;;;;;;;;;5113861;28;20194;-87
2023/01/06 07:33:23;;;;;;;4.73;2.73;;;;;;;;;;5113881;28;20670;-87
2023/01/06 07:35:54;;;;;;;10.77;2.80;;;;;;;;;;5114215;28;20194;-89
2023/01/06 07:38:22;;;;;;;5.30;2.63;;;;;;;;;;5113892;28;20201;-87
2023/01/06 07:40:49;;;;;;;6.83;3.00;;;;;;;;;;5114084;28;20281;-86
2023/01/06 07:43:17;;;;;;;6.83;2.90;;;;;;;;;;5114002;28;20624;-87
2023/01/06 07:45:46;;;;;;;6.03;2.80;;;;;;;;;;5113821;28;20194;-86
2023/01/06 07:48:13;;;;;;;7.80;2.57;;;;;;;;;;5113226;28;20237;-87
2023/01/06 07:50:40;;;;;;;7.63;2.70;;;;;;;;;;5113624;28;20201;-87
2023/01/06 07:53:09;;;;;;;7.33;2.67;;;;;;;;;;5113891;28;20198;-87
2023/01/06 07:55:37;;;;;;;4.43;2.30;;;;;;;;;;5113916;28;20190;-87
2023/01/06 07:58:05;;;;;;;5.10;2.33;;;;;;;;;;5113447;28;20665;-87
2023/01/06 08:00:32;;;;;;;8.90;2.30;;;;;;;;;;5113620;28;20263;-87
2023/01/06 08:02:59;;;;;;;7.83;2.43;;;;;;;;;;5114698;28;20270;-87
2023/01/06 08:05:29;;;;;;;6.27;2.47;;;;;;;;;;5118732;28;20197;-87
2023/01/06 08:08:02;;;;;;;4.80;2.17;;;;;;;;;;5117110;28;20257;-88
2023/01/06 08:10:34;;;;;;;9.67;2.53;;;;;;;;;;5113839;28;20243;-87
2023/01/06 08:13:01;;;;;;;8.07;2.50;;;;;;;;;;5113327;28;20262;-87
2023/01/06 08:15:28;;;;;;;5.03;2.33;;;;;;;;;;5114084;28;20194;-87
2023/01/06 08:17:56;;;;;;;8.63;2.20;;;;;;;;;;5113887;28;20201;-87
2023/01/06 08:20:23;;;;;;;5.47;2.63;;;;;;;;;;5113951;28;20198;-88
2023/01/06 08:22:51;;;;;;;6.07;2.37;;;;;;;;;;5114944;28;20198;-88
2023/01/06 08:25:18;;;;;;;6.67;2.10;;;;;;;;;;5113704;28;20266;-87
2023/01/06 08:27:47;;;;;;;10.07;2.53;;;;;;;;;;5114161;28;20255;-86
2023/01/06 08:30:18;;;;;;;6.63;2.47;;;;;;;;;;5114931;28;20194;-88
2023/01/06 08:32:46;;;;;;;4.63;2.07;;;;;;;;;;5116439;28;20194;-88
2023/01/06 08:35:13;;;;;;;4.47;1.80;;;;;;;;;;5116020;28;20198;-86
2023/01/06 08:37:40;;;;;;;3.73;1.87;;;;;;;;;;5115705;28;20225;-86
2023/01/06 08:40:08;;;;;;;3.40;1.97;;;;;;;;;;5114147;28;20266;-86
2023/01/06 08:42:35;;;;;;;2.63;1.63;;;;;;;;;;5114132;28;20194;-85
2023/01/06 08:45:04;;;;;;;4.73;1.83;;;;;;;;;;5113300;28;20190;-87
2023/01/06 08:47:31;;;;;;;6.47;2.03;;;;;;;;;;5111940;28;20998;-86
2023/01/06 08:49:58;;;;;;;7.67;2.00;;;;;;;;;;5111917;28;20623;-86
2023/01/06 08:52:26;;;;;;;4.97;2.03;;;;;;;;;;5114117;28;20212;-86
2023/01/06 08:54:53;;;;;;;6.93;2.10;;;;;;;;;;5113670;28;20654;-86
2023/01/06 08:57:20;;;;;;;6.00;2.00;;;;;;;;;;5112485;28;20258;-86
2023/01/06 08:59:47;;;;;;;6.37;2.13;;;;;;;;;;5112701;28;20286;-85
2023/01/06 09:02:16;;;;;;;4.20;2.00;;;;;;;;;;5112691;28;20657;-86
2023/01/06 09:04:44;;;;;;;4.87;2.27;;;;;;;;;;5111905;28;21216;-87
2023/01/06 09:07:11;;;;;;;5.33;2.90;;;;;;;;;;5112969;28;20194;-87
2023/01/06 09:09:38;;;;;;;5.87;2.90;;;;;;;;;;5112514;28;20229;-87
2023/01/06 09:12:06;;;;;;;5.77;3.20;;;;;;;;;;5111886;28;20201;-86
2023/01/06 09:14:33;;;;;;;5.53;3.10;;;;;;;;;;5112462;28;20202;-87
2023/01/06 09:17:00;;;;;;;5.73;3.10;;;;;;;;;;5112188;28;20703;-86
2023/01/06 09:19:29;;;;;;;4.50;2.83;;;;;;;;;;5111957;28;20279;-86
2023/01/06 09:21:56;;;;;;;5.70;2.90;;;;;;;;;;5111184;28;20225;-85
2023/01/06 09:24:23;;;;;;;6.50;3.30;;;;;;;;;;5111420;28;20193;-86
2023/01/06 09:26:51;;;;;;;6.43;2.87;;;;;;;;;;5112058;28;20202;-86
2023/01/06 09:29:20;;;;;;;7.97;3.17;;;;;;;;;;5111665;28;20701;-87
2023/01/06 09:31:47;;;;;;;6.73;3.17;;;;;;;;;;5111828;28;20277;-86
2023/01/06 09:34:14;;;;;;;5.20;3.10;;;;;;;;;;5111738;28;20314;-86
2023/01/06 09:36:43;;;;;;;5.80;3.03;;;;;;;;;;5111907;28;20225;-86
2023/01/06 09:39:10;;;;;;;4.83;2.97;;;;;;;;;;5111847;28;20198;-86
2023/01/06 09:41:54;;;;;;;4.87;2.77;;;;;;;;;;5111093;28;20262;-86
2023/01/06 09:44:23;;;;;;;4.70;3.00;;;;;;;;;;5110602;28;20233;-86
2023/01/06 09:46:51;;;;;;;7.07;3.20;;;;;;;;;;5111917;28;20640;-87
2023/01/06 09:49:24;;;;;;;5.97;2.90;;;;;;;;;;5115166;28;20257;-86
2023/01/06 09:51:54;;;;;;;5.13;2.97;;;;;;;;;;5115442;28;20658;-86
2023/01/06 09:54:23;;;;;;;6.30;3.00;;;;;;;;;;5115584;28;20246;-84
2023/01/06 09:56:54;;;;;;;5.17;3.00;;;;;;;;;;5114903;28;20225;-85
2023/01/06 09:59:24;;;;;;;4.70;2.90;;;;;;;;;;5114722;28;20202;-85
2023/01/06 10:01:53;;;;;;;7.07;2.90;;;;;;;;;;5114671;28;20290;-85
2023/01/06 10:04:25;;;;;;;4.77;3.17;;;;;;;;;;5114515;28;20205;-85
2023/01/06 10:06:57;;;;;;;4.63;2.80;;;;;;;;;;5114392;28;20585;-85
2023/01/06 10:09:28;;;;;;;3.90;2.93;;;;;;;;;;5097436;28;20291;-85
2023/01/06 10:12:00;;;;;;;3.87;2.90;;;;;;;;;;5114403;28;20263;-85
2023/01/06 10:14:37;;;;;;;5.63;3.30;;;;;;;;;;5114463;28;20278;-85
2023/01/06 10:17:12;;;;;;;5.33;3.30;;;;;;;;;;5114448;28;20204;-86
2023/01/06 10:19:47;;;;;;;5.83;3.20;;;;;;;;;;5115025;28;20197;-85
2023/01/06 10:22:20;;;;;;;6.37;3.03;;;;;;;;;;5114365;28;20643;-85
2023/01/06 10:24:54;;;;;;;4.13;3.00;;;;;;;;;;5113815;28;20700;-85
2023/01/06 10:27:26;;;;;;;4.37;2.90;;;;;;;;;;5114215;28;20808;-85
2023/01/06 10:29:55;;;;;;;3.57;2.90;;;;;;;;;;5114234;28;20650;-85
2023/01/06 10:32:23;;;;;;;3.23;2.40;;;;;;;;;;5113326;28;20206;-84
2023/01/06 10:34:51;;;;;;;7.17;2.83;;;;;;;;;;5114176;28;20295;-85
2023/01/06 10:37:21;;;;;;;4.50;3.00;;;;;;;;;;5114212;28;20289;-86
2023/01/06 10:39:52;;;;;;;3.27;2.60;;;;;;;;;;5113936;28;20273;-85
2023/01/06 10:45:11;;;;;;;4.43;2.90;;;;;;;;;;5113461;28;20267;-86
2023/01/06 10:47:40;;;;;;;4.63;2.93;;;;;;;;;;5113782;28;20770;-84
2023/01/06 10:50:08;;;;;;;8.80;2.93;;;;;;;;;;5113362;28;20240;-85
2023/01/06 10:52:37;;;;;;;5.80;3.00;;;;;;;;;;5113741;28;20247;-84
2023/01/06 10:55:06;;;;;;;6.80;3.30;;;;;;;;;;5113808;28;20275;-85
2023/01/06 10:57:34;;;;;;;6.60;3.00;;;;;;;;;;5113485;28;20202;-86
2023/01/06 11:00:09;;;;;;;7.37;3.03;;;;;;;;;;5111064;28;20205;-85
2023/01/06 11:02:36;;;;;;;6.30;2.77;;;;;;;;;;5113410;28;20564;-86
2023/01/06 11:05:03;;;;;;;5.90;2.77;;;;;;;;;;5113567;28;20212;-85
2023/01/06 11:07:31;;;;;;;4.43;2.97;;;;;;;;;;5113405;28;20189;-84
2023/01/06 11:10:00;;;;;;;4.90;2.90;;;;;;;;;;5112597;28;20257;-82
2023/01/06 11:12:30;;;;;;;6.77;2.73;;;;;;;;;;5113652;28;20737;-87
2023/01/06 11:15:00;;;;;;;4.87;2.73;;;;;;;;;;5114388;28;20552;-86
2023/01/06 11:17:28;;;;;;;4.90;2.63;;;;;;;;;;5114770;28;20237;-87
2023/01/06 11:20:06;;;;;;;4.87;2.57;;;;;;;;;;5114080;28;20707;-87
2023/01/06 11:22:35;;;;;;;3.47;2.40;;;;;;;;;;5114475;28;20242;-88
2023/01/06 11:25:04;;;;;;;3.03;2.40;;;;;;;;;;5114038;28;20197;-88
2023/01/06 11:27:32;;;;;;;4.37;2.30;;;;;;;;;;5114197;28;20244;-83
2023/01/06 11:29:59;;;;;;;3.87;2.27;;;;;;;;;;5112689;28;20725;-85
2023/01/06 11:32:27;;;;;;;4.90;2.30;;;;;;;;;;5112661;28;20233;-84
2023/01/06 11:34:55;;;;;;;4.53;2.00;;;;;;;;;;5112150;28;20229;-84
2023/01/06 11:37:33;;;;;;;4.60;2.13;;;;;;;;;;5112729;28;20246;-85
2023/01/06 11:40:01;;;;;;;3.73;2.00;;;;;;;;;;5116058;28;20251;-85
2023/01/06 11:42:30;;;;;;;5.07;2.10;;;;;;;;;;5115309;28;20262;-84
2023/01/06 11:44:58;;;;;;;4.60;1.87;;;;;;;;;;5112821;28;20572;-85
2023/01/06 11:47:30;;;;;;;4.87;1.80;;;;;;;;;;5113371;28;20697;-84
2023/01/06 11:49:59;;;;;;;3.47;1.97;;;;;;;;;;5117579;28;20290;-85
2023/01/06 11:52:30;;;;;;;4.73;1.70;;;;;;;;;;5112575;28;20194;-84
2023/01/06 11:54:58;;;;;;;3.47;1.60;;;;;;;;;;5112891;28;20194;-85
2023/01/06 11:57:28;;;;;;;2.07;1.67;;;;;;;;;;5112401;28;20262;-85
2023/01/06 12:00:17;;;;;;;2.53;1.40;;;;;;;;;;5111739;28;20194;-86
2023/01/06 12:02:50;;;;;;;4.93;1.50;;;;;;;;;;5029394;28;20203;-86
2023/01/06 12:05:22;;;;;;;4.57;1.63;;;;;;;;;;5024672;28;20204;-85
2023/01/06 12:07:51;;;;;;;4.07;1.63;;;;;;;;;;5029411;28;20318;-85
2023/01/06 12:10:21;;;;;;;3.37;1.30;;;;;;;;;;5027256;28;20649;-85
2023/01/06 12:12:49;;;;;;;5.13;1.53;;;;;;;;;;5028739;28;20193;-86
2023/01/06 12:15:17;;;;;;;2.30;1.20;;;;;;;;;;5029231;28;20275;-86
2023/01/06 12:17:49;;;;;;;2.10;1.17;;;;;;;;;;5029416;28;20271;-86
2023/01/06 12:20:20;;;;;;;4.03;1.50;;;;;;;;;;5024454;28;20196;-86
2023/01/06 12:22:50;;;;;;;2.40;1.20;;;;;;;;;;5028576;28;20184;-86
2023/01/06 12:25:19;;;;;;;3.33;1.37;;;;;;;;;;5028327;28;20248;-86
2023/01/06 12:27:48;;;;;;;2.43;1.00;;;;;;;;;;5029108;28;20212;-86
2023/01/06 12:30:20;;;;;;;3.20;1.33;;;;;;;;;;5029171;28;20216;-87
2023/01/06 12:32:51;;;;;;;2.33;1.20;;;;;;;;;;5029641;28;20223;-87
2023/01/06 12:35:28;;;;;;;3.43;1.13;;;;;;;;;;5029712;28;20262;-87
2023/01/06 12:38:00;;;;;;;4.90;1.17;;;;;;;;;;5021552;28;20608;-86
2023/01/06 12:40:31;;;;;;;3.57;1.10;;;;;;;;;;5095696;28;20258;-86
2023/01/06 12:43:01;;;;;;;2.33;0.97;;;;;;;;;;5112455;28;20198;-88
2023/01/06 12:45:33;;;;;;;1.90;1.10;;;;;;;;;;5112823;28;20646;-87
2023/01/06 12:48:01;;;;;;;3.63;1.17;;;;;;;;;;5112488;28;20294;-85
2023/01/06 12:50:33;;;;;;;2.77;1.13;;;;;;;;;;5112198;28;20589;-86
2023/01/06 12:53:03;;;;;;;2.37;1.20;;;;;;;;;;5112716;28;20229;-86
2023/01/06 12:55:38;;;;;;;3.27;1.03;;;;;;;;;;5112495;28;20621;-87
2023/01/06 12:58:11;;;;;;;3.47;0.80;;;;;;;;;;5112888;28;20209;-87
2023/01/06 13:00:42;;;;;;;3.53;0.87;;;;;;;;;;5112439;28;20213;-86
2023/01/06 13:03:22;;;;;;;3.23;0.87;;;;;;;;;;5112451;28;20660;-87
2023/01/06 13:05:58;;;;;;;3.77;1.10;;;;;;;;;;5112528;28;20246;-86
2023/01/06 13:08:36;;;;;;;1.90;0.90;;;;;;;;;;5112594;28;20254;-86
2023/01/06 13:11:08;;;;;;;4.33;1.73;;;;;;;;;;5112028;28;20259;-86
2023/01/06 13:13:41;;;;;;;3.03;1.43;;;;;;;;;;5112803;28;20222;-87
2023/01/06 13:16:15;;;;;;;2.90;1.30;;;;;;;;;;5112211;28;20225;-86
2023/01/06 13:18:45;;;;;;;5.63;1.70;;;;;;;;;;5112327;28;20254;-87
2023/01/06 13:21:16;;;;;;;2.97;1.13;;;;;;;;;;5112803;28;20189;-87
2023/01/06 13:23:57;;;;;;;1.77;0.90;;;;;;;;;;5116218;28;20227;-86
2023/01/06 13:26:33;;;;;;;3.07;1.10;;;;;;;;;;5115472;28;20221;-86
2023/01/06 13:29:05;;;;;;;2.47;1.30;;;;;;;;;;5095327;28;20217;-87
2023/01/06 13:31:41;;;;;;;5.30;1.50;;;;;;;;;;5109830;28;20278;-87
2023/01/06 13:34:30;;;;;;;8.40;3.17;;;;;;;;;;5095335;28;20247;-87
2023/01/06 13:37:24;;;;;;;4.13;1.30;;;;;;;;;;5094956;28;20240;-87
2023/01/06 13:39:55;;;;;;;3.40;1.00;;;;;;;;;;5012832;28;20247;-86
2023/01/06 13:42:31;;;;;;;2.50;1.00;;;;;;;;;;5013603;28;20243;-86
2023/01/06 13:44:59;;;;;;;3.30;1.10;;;;;;;;;;5025986;28;20216;-87
2023/01/06 13:47:26;;;;;;;1.87;0.80;;;;;;;;;;5032195;28;20232;-85
2023/01/06 13:49:54;;;;;;;2.00;0.87;;;;;;;;;;5032341;28;20255;-86
2023/01/06 13:52:23;;;;;;;3.83;1.43;;;;;;;;;;5032297;28;20204;-86
2023/01/06 13:55:22;;;;;;;4.20;1.20;;;;;;;;;;5031883;28;20216;-86
2023/01/06 13:57:50;;;;;;;3.63;1.40;;;;;;;;;;5032233;28;20200;-87
2023/01/06 14:00:23;;;;;;;3.97;1.20;;;;;;;;;;5032027;28;20659;-86
2023/01/06 14:03:15;;;;;;;3.33;1.00;;;;;;;;;;5031919;28;20196;-86
2023/01/06 14:05:55;;;;;;;2.30;0.90;;;;;;;;;;5032192;28;20275;-86
2023/01/06 14:08:23;;;;;;;4.50;1.10;;;;;;;;;;5030876;28;20200;-85
2023/01/06 14:11:02;;;;;;;2.83;0.70;;;;;;;;;;5031813;28;20232;-86
2023/01/06 14:13:31;;;;;;;1.63;0.53;;;;;;;;;;5031467;28;20258;-85
2023/01/06 14:15:59;;;;;;;1.37;0.70;;;;;;;;;;5092094;27;20205;-86
2023/01/06 14:18:35;;;;;;;2.03;1.00;;;;;;;;;;5114804;27;20201;-86
2023/01/06 14:21:04;;;;;;;2.37;1.17;;;;;;;;;;5115492;28;20589;-86
2023/01/06 14:23:31;;;;;;;2.20;1.40;;;;;;;;;;5114432;28;20657;-86
2023/01/06 14:25:59;;;;;;;3.17;1.17;;;;;;;;;;5114132;28;20202;-86
2023/01/06 14:28:29;;;;;;;2.13;1.10;;;;;;;;;;5114247;28;20255;-86
2023/01/06 14:31:15;;;;;;;2.63;1.10;;;;;;;;;;5114396;28;20737;-86
2023/01/06 14:33:44;;;;;;;3.10;0.87;;;;;;;;;;5127542;27;20205;-86
2023/01/06 14:36:13;;;;;;;1.67;0.97;;;;;;;;;;5135091;27;20669;-86
2023/01/06 14:38:44;;;;;;;1.40;0.70;;;;;;;;;;5122386;27;20251;-87
2023/01/06 14:41:18;;;;;;;3.13;1.10;;;;;;;;;;5114115;28;20225;-85
2023/01/06 14:43:52;;;;;;;3.07;1.27;;;;;;;;;;5113676;28;20262;-86
2023/01/06 14:46:20;;;;;;;1.00;0.80;;;;;;;;;;5113817;28;20247;-86
2023/01/06 14:48:51;;;;;;;1.20;0.70;;;;;;;;;;5113482;28;20229;-86
2023/01/06 14:51:19;;;;;;;2.40;0.90;;;;;;;;;;5120302;27;20225;-87
2023/01/06 14:53:50;;;;;;;2.77;0.80;;;;;;;;;;5113492;28;20197;-86
2023/01/06 14:56:18;;;;;;;1.37;0.63;;;;;;;;;;5113411;28;20247;-86
2023/01/06 14:58:45;;;;;;;3.00;1.00;;;;;;;;;;5113591;28;20194;-86
2023/01/06 15:01:25;;;;;;;2.90;0.87;;;;;;;;;;5113932;28;20190;-86
2023/01/06 15:03:55;;;;;;;2.90;1.03;;;;;;;;;;5114090;28;20197;-85